Time;durP1;ratioP1;P1;durP2;ratioP2;P2;SDS_P1;SDS_P2;PMS_P1;PMS_P2;Temp;Humidity;BMP_temperature;BMP_pressure;BME280_temperature;BME280_humidity;BME280_pressure;Samples;Min_cycle;Max_cycle;Signal;HPM_P1;HPM_P2
2023/11/01 00:02:13;;;;;;;1.60;1.13;;;12.20;98.20;;;;;;5009913;28;20570;-83
2023/11/01 00:04:39;;;;;;;1.57;1.00;;;12.20;98.20;;;;;;5009417;28;20562;-83
2023/11/01 00:07:06;;;;;;;1.57;1.00;;;12.20;98.20;;;;;;5006757;28;20532;-83
2023/11/01 00:09:33;;;;;;;1.57;1.00;;;12.20;98.20;;;;;;5009314;28;20995;-82
2023/11/01 00:12:02;;;;;;;1.53;1.00;;;12.20;98.20;;;;;;5007814;28;20667;-84
2023/11/01 00:14:29;;;;;;;1.60;1.00;;;12.20;98.20;;;;;;5013008;28;20464;-84
2023/11/01 00:16:56;;;;;;;1.57;1.10;;;12.20;98.20;;;;;;5010041;28;20986;-82
2023/11/01 00:19:23;;;;;;;1.60;1.10;;;12.20;98.20;;;;;;5016947;28;20460;-81
2023/11/01 00:21:50;;;;;;;1.50;1.00;;;12.20;98.20;;;;;;5011003;28;20483;-81
2023/11/01 00:24:17;;;;;;;1.60;1.00;;;12.20;98.20;;;;;;5022310;28;20503;-81
2023/11/01 00:26:44;;;;;;;1.60;1.10;;;12.20;98.20;;;;;;5008715;28;20558;-82
2023/11/01 00:29:13;;;;;;;1.60;1.10;;;12.20;98.20;;;;;;5022665;28;20499;-82
2023/11/01 00:31:40;;;;;;;1.57;1.00;;;12.20;98.20;;;;;;5013552;28;20475;-82
2023/11/01 00:34:08;;;;;;;1.57;1.10;;;12.20;98.20;;;;;;5025983;28;20495;-83
2023/11/01 00:36:35;;;;;;;1.60;1.00;;;12.20;98.20;;;;;;5011481;28;20487;-82
2023/11/01 00:39:02;;;;;;;1.57;1.00;;;12.20;98.20;;;;;;5022565;28;20474;-83
2023/11/01 00:41:29;;;;;;;1.60;1.00;;;12.20;98.20;;;;;;5013018;28;20548;-83
2023/11/01 00:43:57;;;;;;;1.60;1.10;;;12.20;98.20;;;;;;5017094;28;20970;-82
2023/11/01 00:46:26;;;;;;;1.60;1.10;;;12.20;98.20;;;;;;5005982;28;20485;-81
2023/11/01 00:48:52;;;;;;;1.53;1.00;;;12.30;98.20;;;;;;5020487;28;20502;-80
2023/11/01 00:51:19;;;;;;;1.57;1.10;;;12.30;98.20;;;;;;5004831;28;21028;-82
2023/11/01 00:53:46;;;;;;;1.60;1.10;;;12.30;98.20;;;;;;5022941;28;20496;-85
2023/11/01 00:56:13;;;;;;;1.60;1.10;;;12.30;98.20;;;;;;5007334;28;20481;-84
2023/11/01 00:58:39;;;;;;;1.53;1.00;;;12.30;98.20;;;;;;5020091;28;20464;-85
2023/11/01 01:01:06;;;;;;;1.57;1.00;;;12.30;98.20;;;;;;5004791;28;20465;-84
2023/11/01 01:03:34;;;;;;;1.53;1.07;;;12.30;98.20;;;;;;5024690;28;20559;-84
2023/11/01 01:06:01;;;;;;;1.60;1.10;;;12.30;98.20;;;;;;5002092;28;20591;-83
2023/11/01 01:08:28;;;;;;;1.57;1.00;;;12.20;98.20;;;;;;5020239;28;20487;-83
2023/11/01 01:10:55;;;;;;;1.53;1.00;;;12.20;98.20;;;;;;4997709;28;20476;-84
2023/11/01 01:13:21;;;;;;;1.60;1.10;;;12.20;98.20;;;;;;5025836;28;20995;-86
2023/11/01 01:15:48;;;;;;;1.57;1.10;;;12.20;98.20;;;;;;5003165;28;20858;-84
2023/11/01 01:18:17;;;;;;;1.53;1.00;;;12.20;98.20;;;;;;5025252;28;20733;-83
2023/11/01 01:20:45;;;;;;;1.53;0.97;;;12.20;98.20;;;;;;5007838;28;20469;-84
2023/11/01 01:23:12;;;;;;;1.50;1.00;;;12.10;98.20;;;;;;5014084;28;20478;-85
2023/11/01 01:25:39;;;;;;;1.60;1.10;;;12.10;98.20;;;;;;5015084;28;20461;-83
2023/11/01 01:28:06;;;;;;;1.60;1.10;;;12.10;98.20;;;;;;5007594;28;20571;-85
2023/11/01 01:30:32;;;;;;;1.60;1.20;;;12.10;98.20;;;;;;5014023;28;20530;-86
2023/11/01 01:32:59;;;;;;;1.60;1.10;;;12.10;98.20;;;;;;5022346;28;20773;-85
2023/11/01 01:35:26;;;;;;;1.57;1.00;;;12.10;98.20;;;;;;5014884;28;20507;-85
2023/11/01 01:37:54;;;;;;;1.53;1.00;;;12.10;98.20;;;;;;5017871;28;20479;-85
2023/11/01 01:40:21;;;;;;;1.60;1.00;;;12.00;98.20;;;;;;5013045;28;20460;-85
2023/11/01 01:42:48;;;;;;;1.50;1.00;;;12.10;98.20;;;;;;5012845;28;20467;-85
2023/11/01 01:45:15;;;;;;;1.60;1.10;;;12.10;98.20;;;;;;5012708;28;20470;-86
2023/11/01 01:47:42;;;;;;;1.57;1.00;;;12.10;98.20;;;;;;5017888;28;20871;-86
2023/11/01 01:50:10;;;;;;;1.60;1.10;;;12.10;98.20;;;;;;5009996;28;20733;-86
2023/11/01 01:52:37;;;;;;;1.60;1.10;;;12.20;98.20;;;;;;5018526;28;20562;-85
2023/11/01 01:55:06;;;;;;;1.60;1.10;;;12.20;98.20;;;;;;5014284;28;20494;-84
2023/11/01 01:57:33;;;;;;;1.53;1.00;;;12.20;98.20;;;;;;5018531;28;20478;-85
2023/11/01 02:00:05;;;;;;;1.53;1.00;;;12.30;98.20;;;;;;5019825;28;20965;-85
2023/11/01 02:02:34;;;;;;;1.57;1.07;;;12.30;98.20;;;;;;5023066;28;20497;-85
2023/11/01 02:05:06;;;;;;;1.60;1.03;;;12.30;98.20;;;;;;5017424;28;20464;-86
2023/11/01 02:07:33;;;;;;;1.57;1.10;;;12.30;98.20;;;;;;5019024;28;20483;-87
2023/11/01 02:10:00;;;;;;;1.60;1.00;;;12.30;98.20;;;;;;5017272;28;20484;-86
2023/11/01 02:12:28;;;;;;;1.60;1.10;;;12.30;98.20;;;;;;5019585;28;20541;-86
2023/11/01 02:14:55;;;;;;;1.60;1.00;;;12.30;98.20;;;;;;5009525;28;20460;-86
2023/11/01 02:17:22;;;;;;;1.60;1.10;;;12.30;98.20;;;;;;5023556;28;20483;-85
2023/11/01 02:19:48;;;;;;;1.60;1.10;;;12.30;98.20;;;;;;5021622;28;20904;-83
2023/11/01 02:22:15;;;;;;;1.57;1.00;;;12.40;98.20;;;;;;5025383;28;20578;-85
2023/11/01 02:24:44;;;;;;;1.60;1.00;;;12.30;98.20;;;;;;5025842;28;20460;-85
2023/11/01 02:27:13;;;;;;;1.60;1.00;;;12.30;98.20;;;;;;5022413;28;20489;-85
2023/11/01 02:29:40;;;;;;;1.53;1.00;;;12.40;98.20;;;;;;5008952;28;20490;-84
2023/11/01 02:32:08;;;;;;;1.60;1.10;;;12.40;98.20;;;;;;5019757;28;20503;-85
2023/11/01 02:34:38;;;;;;;1.60;1.20;;;12.40;98.20;;;;;;5024030;28;20977;-86
2023/11/01 02:37:04;;;;;;;1.60;1.00;;;12.30;98.20;;;;;;5014357;28;20477;-84
2023/11/01 02:39:31;;;;;;;1.57;1.00;;;12.40;98.20;;;;;;5025493;28;20470;-82
2023/11/01 02:42:00;;;;;;;1.50;1.00;;;12.40;98.20;;;;;;5017504;28;20609;-84
2023/11/01 02:44:27;;;;;;;1.60;1.00;;;12.40;98.20;;;;;;5028124;28;20468;-84
2023/11/01 02:46:53;;;;;;;1.60;1.00;;;12.40;98.20;;;;;;5010689;28;20779;-87
2023/11/01 02:49:20;;;;;;;1.60;1.10;;;12.40;98.20;;;;;;5028555;28;20526;-83
2023/11/01 02:51:47;;;;;;;1.57;1.07;;;12.40;98.20;;;;;;5023180;28;20545;-81
2023/11/01 02:54:14;;;;;;;1.53;1.00;;;12.40;98.20;;;;;;5027234;28;20472;-82
2023/11/01 02:56:41;;;;;;;1.53;1.00;;;12.40;98.20;;;;;;5019634;28;20489;-81
2023/11/01 02:59:09;;;;;;;1.60;1.10;;;12.30;98.20;;;;;;5029472;28;20536;-83
2023/11/01 03:01:36;;;;;;;1.60;1.10;;;12.30;98.20;;;;;;5015977;28;20481;-82
2023/11/01 03:04:03;;;;;;;1.53;1.00;;;12.30;98.20;;;;;;5029819;28;20472;-83
2023/11/01 03:06:30;;;;;;;2.03;1.23;;;12.30;98.20;;;;;;5016851;28;20532;-83
2023/11/01 03:08:57;;;;;;;1.60;1.00;;;12.20;98.20;;;;;;5022557;28;20491;-83
2023/11/01 03:11:24;;;;;;;1.57;1.00;;;12.20;98.20;;;;;;5012862;28;20477;-82
2023/11/01 03:13:51;;;;;;;1.60;1.10;;;12.20;98.20;;;;;;5023995;28;20468;-81
2023/11/01 03:16:19;;;;;;;1.60;1.00;;;12.20;98.20;;;;;;5011576;28;21017;-84
2023/11/01 03:18:46;;;;;;;1.53;1.00;;;12.20;98.20;;;;;;5023089;28;20510;-83
2023/11/01 03:21:13;;;;;;;1.60;1.00;;;12.20;98.20;;;;;;5000262;28;20478;-85
2023/11/01 03:23:40;;;;;;;1.53;1.10;;;12.20;98.20;;;;;;5022806;28;20471;-87
2023/11/01 03:26:06;;;;;;;1.53;1.00;;;12.10;98.20;;;;;;4993782;28;20461;-85
2023/11/01 03:28:33;;;;;;;1.60;1.10;;;12.20;98.20;;;;;;5026103;28;20487;-86
2023/11/01 03:31:00;;;;;;;1.57;1.00;;;12.10;98.20;;;;;;5001545;28;20575;-86
2023/11/01 03:33:28;;;;;;;1.60;1.10;;;12.10;98.20;;;;;;5015939;28;20470;-86
2023/11/01 03:35:55;;;;;;;1.57;1.00;;;12.10;98.20;;;;;;4991826;28;20457;-85
2023/11/01 03:38:22;;;;;;;1.57;1.10;;;12.10;98.20;;;;;;5023440;28;20510;-85
2023/11/01 03:40:49;;;;;;;1.53;1.10;;;12.10;98.20;;;;;;4997154;28;20999;-86
2023/11/01 03:43:16;;;;;;;1.60;1.10;;;12.10;98.20;;;;;;5016857;28;20475;-85
2023/11/01 03:45:42;;;;;;;1.60;1.10;;;12.10;98.20;;;;;;5006086;28;20456;-85
2023/11/01 03:48:09;;;;;;;1.57;1.10;;;12.10;98.20;;;;;;5008296;28;20796;-84
2023/11/01 03:50:39;;;;;;;1.60;1.17;;;12.10;98.20;;;;;;5000011;28;20520;-86
2023/11/01 03:53:06;;;;;;;1.60;1.10;;;12.10;98.20;;;;;;5017733;28;20476;-85
2023/11/01 03:55:33;;;;;;;1.60;1.20;;;12.10;98.20;;;;;;5011049;28;20742;-83
2023/11/01 03:58:00;;;;;;;1.60;1.00;;;12.10;98.20;;;;;;5013806;28;20482;-84
2023/11/01 04:00:27;;;;;;;1.57;1.00;;;12.10;98.20;;;;;;5012120;28;20463;-85
2023/11/01 04:02:53;;;;;;;1.57;1.00;;;12.10;98.20;;;;;;5022805;28;20482;-84
2023/11/01 04:05:21;;;;;;;1.70;1.37;;;12.10;98.20;;;;;;5005687;28;20457;-85
2023/11/01 04:07:49;;;;;;;1.60;1.10;;;12.10;98.20;;;;;;5015584;28;20499;-84
2023/11/01 04:10:16;;;;;;;1.60;1.10;;;12.00;98.20;;;;;;5011993;28;20514;-86
2023/11/01 04:12:42;;;;;;;1.53;1.00;;;12.00;98.20;;;;;;5024583;28;20482;-86
2023/11/01 04:15:12;;;;;;;1.60;1.10;;;12.00;98.20;;;;;;5008281;28;20825;-84
2023/11/01 04:17:39;;;;;;;1.57;1.10;;;12.00;98.20;;;;;;5011406;28;20475;-85
2023/11/01 04:20:07;;;;;;;1.60;1.10;;;12.00;98.20;;;;;;5004476;28;20930;-85
2023/11/01 04:22:35;;;;;;;1.60;1.10;;;12.00;98.20;;;;;;5004948;28;20475;-82
2023/11/01 04:25:05;;;;;;;1.60;1.00;;;12.00;98.20;;;;;;5014317;28;20468;-85
2023/11/01 04:27:34;;;;;;;1.60;1.10;;;12.00;98.20;;;;;;5006480;28;20495;-86
2023/11/01 04:30:04;;;;;;;1.60;1.00;;;12.00;98.20;;;;;;5013935;28;20507;-86
2023/11/01 04:32:33;;;;;;;1.57;1.00;;;12.00;98.20;;;;;;5014055;28;20517;-86
2023/11/01 04:35:00;;;;;;;1.60;1.10;;;12.00;98.20;;;;;;5012987;28;20468;-86
2023/11/01 04:37:26;;;;;;;1.57;1.00;;;12.00;98.20;;;;;;5009866;28;20488;-86
2023/11/01 04:39:53;;;;;;;1.60;1.00;;;12.00;98.20;;;;;;5012556;28;20761;-86
2023/11/01 04:42:23;;;;;;;1.60;1.10;;;12.00;98.20;;;;;;5006533;28;20472;-87
2023/11/01 04:44:51;;;;;;;1.60;1.10;;;12.00;98.20;;;;;;5018950;28;21709;-86
2023/11/01 04:47:18;;;;;;;1.60;1.03;;;12.10;98.20;;;;;;5019306;28;21071;-87
2023/11/01 04:49:44;;;;;;;1.60;1.03;;;12.10;98.20;;;;;;5021327;28;20471;-88
2023/11/01 04:52:11;;;;;;;1.57;1.00;;;12.10;98.20;;;;;;5011099;28;20559;-87
2023/11/01 04:54:38;;;;;;;1.60;1.10;;;12.10;98.20;;;;;;5005886;28;20483;-85
2023/11/01 04:57:05;;;;;;;1.57;1.00;;;12.20;98.20;;;;;;5005150;28;20494;-84
2023/11/01 04:59:34;;;;;;;1.60;1.10;;;12.20;98.20;;;;;;5019174;28;20547;-85
2023/11/01 05:02:00;;;;;;;1.57;1.10;;;12.20;98.20;;;;;;5006757;28;20535;-84
2023/11/01 05:04:27;;;;;;;1.57;1.10;;;12.20;98.20;;;;;;5020502;28;20468;-86
2023/11/01 05:06:54;;;;;;;1.60;1.10;;;12.20;98.20;;;;;;5000755;28;20507;-86
2023/11/01 05:09:21;;;;;;;1.57;1.00;;;12.20;98.20;;;;;;5021056;28;20469;-86
2023/11/01 05:11:49;;;;;;;1.60;1.13;;;12.20;98.20;;;;;;5012204;28;20487;-87
2023/11/01 05:14:17;;;;;;;1.53;1.00;;;12.20;98.20;;;;;;5020725;28;20460;-85
2023/11/01 05:16:47;;;;;;;1.60;1.10;;;12.20;98.20;;;;;;5019710;28;20482;-86
2023/11/01 05:19:19;;;;;;;1.60;1.10;;;12.20;98.20;;;;;;5021611;28;20456;-86
2023/11/01 05:21:47;;;;;;;1.57;1.10;;;12.20;98.20;;;;;;5008711;28;20480;-87
2023/11/01 05:24:14;;;;;;;1.60;1.10;;;12.20;98.20;;;;;;5025918;28;20468;-86
2023/11/01 05:26:42;;;;;;;1.57;1.07;;;12.20;98.20;;;;;;5006946;28;20492;-86
2023/11/01 05:29:09;;;;;;;1.60;1.00;;;12.20;98.20;;;;;;5021891;28;20464;-87
2023/11/01 05:31:36;;;;;;;1.57;1.00;;;12.20;98.20;;;;;;5008236;28;20545;-86
2023/11/01 05:34:11;;;;;;;1.60;1.03;;;12.20;98.20;;;;;;5015767;28;20571;-86
2023/11/01 05:36:38;;;;;;;1.60;1.10;;;12.20;98.20;;;;;;4999651;28;20535;-85
2023/11/01 05:39:07;;;;;;;1.60;1.10;;;12.20;98.20;;;;;;5010406;28;20468;-85
2023/11/01 05:41:34;;;;;;;1.57;1.00;;;12.10;98.20;;;;;;5004304;28;20529;-84
2023/11/01 05:44:01;;;;;;;1.60;1.00;;;12.10;98.20;;;;;;5028086;28;20473;-84
2023/11/01 05:46:28;;;;;;;1.60;1.10;;;12.10;98.20;;;;;;5014904;28;20467;-84
2023/11/01 05:48:55;;;;;;;1.53;1.00;;;12.10;98.20;;;;;;5031223;28;20465;-85
2023/11/01 05:51:23;;;;;;;1.60;1.10;;;12.10;98.20;;;;;;5015382;28;20549;-84
2023/11/01 05:53:49;;;;;;;1.57;1.00;;;12.10;98.20;;;;;;5031555;28;20762;-84
2023/11/01 05:56:16;;;;;;;1.60;1.10;;;12.00;98.20;;;;;;5014272;28;20492;-83
2023/11/01 05:58:43;;;;;;;1.60;1.00;;;12.00;98.20;;;;;;5024225;28;20570;-83
2023/11/01 06:01:10;;;;;;;1.57;1.00;;;12.00;98.20;;;;;;4999933;28;20479;-83
2023/11/01 06:03:37;;;;;;;1.53;1.00;;;12.00;98.20;;;;;;5007762;28;20537;-84
2023/11/01 06:06:05;;;;;;;1.60;1.10;;;12.00;98.20;;;;;;5004032;28;20547;-84
2023/11/01 06:08:33;;;;;;;1.60;1.07;;;12.00;98.20;;;;;;5022709;28;20487;-83
2023/11/01 06:11:00;;;;;;;1.60;1.10;;;12.00;98.20;;;;;;5002164;28;21018;-83
2023/11/01 06:13:27;;;;;;;1.60;1.00;;;12.00;98.20;;;;;;5023298;28;20467;-82
2023/11/01 06:15:59;;;;;;;1.50;1.00;;;12.10;98.20;;;;;;4999576;28;20474;-84
2023/11/01 06:18:25;;;;;;;1.57;1.00;;;12.10;98.20;;;;;;5026195;28;20849;-81
2023/11/01 06:20:52;;;;;;;1.60;1.10;;;12.10;98.20;;;;;;5016003;28;20859;-80
2023/11/01 06:23:19;;;;;;;1.60;1.10;;;12.00;98.20;;;;;;5027428;28;20463;-81
2023/11/01 06:25:47;;;;;;;1.60;1.10;;;12.00;98.20;;;;;;5023808;28;21063;-81
2023/11/01 06:28:14;;;;;;;1.53;1.00;;;12.00;98.20;;;;;;5001593;28;20603;-81
2023/11/01 06:30:41;;;;;;;1.53;1.00;;;12.00;98.20;;;;;;5016152;28;20534;-81
2023/11/01 06:33:08;;;;;;;1.60;1.10;;;12.00;98.20;;;;;;5019764;28;20509;-82
2023/11/01 06:35:35;;;;;;;1.60;1.10;;;12.00;98.20;;;;;;5012350;28;20464;-80
2023/11/01 06:38:01;;;;;;;1.57;1.10;;;12.00;98.20;;;;;;5015413;28;20550;-82
2023/11/01 06:40:28;;;;;;;3.77;3.47;;;12.00;98.20;;;;;;5012105;28;20456;-80
2023/11/01 06:42:56;;;;;;;1.60;1.00;;;12.00;98.20;;;;;;5019231;28;20960;-81
2023/11/01 06:45:23;;;;;;;1.60;1.10;;;12.00;98.20;;;;;;5016233;28;20471;-82
2023/11/01 06:47:50;;;;;;;1.60;1.00;;;12.00;98.20;;;;;;5014858;28;20514;-81
2023/11/01 06:50:17;;;;;;;1.60;1.00;;;12.00;98.20;;;;;;5016372;28;20479;-81
2023/11/01 06:52:45;;;;;;;3.00;1.63;;;12.00;98.20;;;;;;5018887;28;20493;-83
2023/11/01 06:55:12;;;;;;;1.60;1.00;;;12.00;98.20;;;;;;5021599;28;20474;-81
2023/11/01 06:57:39;;;;;;;1.60;1.10;;;12.10;98.20;;;;;;5011394;28;20486;-81
2023/11/01 07:00:09;;;;;;;1.60;1.10;;;12.10;98.20;;;;;;5019942;28;20461;-83
2023/11/01 07:02:36;;;;;;;1.53;0.93;;;12.20;98.20;;;;;;5013085;28;20487;-82
2023/11/01 07:05:05;;;;;;;1.60;1.00;;;12.20;98.20;;;;;;5021696;28;20999;-82
2023/11/01 07:07:32;;;;;;;1.60;1.10;;;12.20;98.20;;;;;;5022471;28;20531;-81
2023/11/01 07:09:59;;;;;;;1.57;1.00;;;12.30;98.20;;;;;;5017297;28;20464;-82
2023/11/01 07:12:26;;;;;;;1.60;1.10;;;12.30;98.20;;;;;;5017042;28;20529;-81
2023/11/01 07:14:52;;;;;;;1.60;1.13;;;12.40;98.20;;;;;;5011385;28;20967;-82
2023/11/01 07:17:21;;;;;;;1.50;0.90;;;12.50;98.20;;;;;;5013228;28;21070;-81
2023/11/01 07:19:48;;;;;;;1.53;1.00;;;12.50;98.20;;;;;;5013871;28;20472;-80
2023/11/01 07:22:14;;;;;;;1.60;1.07;;;12.60;98.20;;;;;;4997251;28;20488;-81
2023/11/01 07:24:41;;;;;;;1.60;1.00;;;12.60;98.20;;;;;;5013508;28;20849;-79
2023/11/01 07:27:08;;;;;;;1.60;1.00;;;12.70;98.20;;;;;;5018665;28;20555;-78
2023/11/01 07:29:35;;;;;;;1.60;1.00;;;12.70;98.20;;;;;;5036321;28;20507;-79
2023/11/01 07:32:02;;;;;;;1.57;1.07;;;12.80;98.20;;;;;;5029176;28;20514;-78
2023/11/01 07:34:30;;;;;;;1.60;1.00;;;12.80;98.20;;;;;;5039984;28;20468;-78
2023/11/01 07:36:56;;;;;;;1.60;1.10;;;12.90;98.20;;;;;;5033713;28;20950;-77
2023/11/01 07:39:23;;;;;;;1.60;1.00;;;12.90;98.20;;;;;;5041281;28;20554;-78
2023/11/01 07:41:50;;;;;;;1.53;1.00;;;13.00;98.20;;;;;;5021003;28;20483;-77
2023/11/01 07:44:19;;;;;;;1.60;1.10;;;13.00;98.20;;;;;;5029493;28;20483;-78
2023/11/01 07:46:45;;;;;;;1.60;1.00;;;13.00;98.20;;;;;;5017314;28;20479;-79
2023/11/01 07:49:12;;;;;;;1.60;1.10;;;13.10;98.20;;;;;;5029821;28;20483;-82
2023/11/01 07:51:40;;;;;;;1.60;1.00;;;13.10;98.20;;;;;;5033607;28;20555;-79
2023/11/01 07:54:09;;;;;;;1.60;1.00;;;13.10;98.20;;;;;;5039476;28;20471;-78
2023/11/01 07:56:36;;;;;;;1.60;1.10;;;13.20;98.20;;;;;;5014368;28;20509;-78
2023/11/01 07:59:03;;;;;;;1.60;1.10;;;13.30;98.20;;;;;;5029899;28;20460;-80
2023/11/01 08:01:31;;;;;;;1.60;1.00;;;13.30;98.20;;;;;;5034523;28;20820;-79
2023/11/01 08:03:58;;;;;;;1.60;1.00;;;13.40;98.20;;;;;;5041927;28;20707;-80
2023/11/01 08:06:25;;;;;;;1.60;1.10;;;13.40;98.20;;;;;;5024661;28;20498;-80
2023/11/01 08:08:53;;;;;;;1.60;1.00;;;13.50;98.20;;;;;;5026266;28;20464;-81
2023/11/01 08:11:19;;;;;;;1.60;1.00;;;13.60;98.20;;;;;;5013574;28;20475;-81
2023/11/01 08:13:47;;;;;;;1.60;1.10;;;13.60;98.20;;;;;;5033453;28;20470;-80
2023/11/01 08:16:14;;;;;;;1.60;1.00;;;13.70;98.20;;;;;;5004233;28;20478;-79
2023/11/01 08:18:41;;;;;;;1.60;1.00;;;13.70;98.20;;;;;;5024214;28;20487;-79
2023/11/01 08:21:07;;;;;;;1.60;1.00;;;13.70;98.20;;;;;;5006236;28;20884;-79
2023/11/01 08:23:36;;;;;;;1.60;1.10;;;13.80;98.20;;;;;;5010469;28;20482;-80
2023/11/01 08:26:05;;;;;;;1.60;1.17;;;13.80;98.20;;;;;;5004708;28;20554;-82
2023/11/01 08:28:31;;;;;;;1.80;1.37;;;13.80;98.20;;;;;;5010599;28;20484;-83
2023/11/01 08:30:58;;;;;;;1.60;1.00;;;13.80;98.20;;;;;;5014302;28;20468;-83
2023/11/01 08:33:25;;;;;;;1.60;1.10;;;13.80;98.20;;;;;;5033450;28;20471;-82
2023/11/01 08:35:52;;;;;;;1.60;1.03;;;13.90;98.20;;;;;;5007271;28;20550;-83
2023/11/01 08:38:19;;;;;;;1.60;1.00;;;14.00;98.20;;;;;;5030585;28;20492;-81
2023/11/01 08:40:45;;;;;;;1.60;1.00;;;14.00;98.20;;;;;;5014385;28;20847;-82
2023/11/01 08:43:13;;;;;;;1.60;1.10;;;14.10;98.20;;;;;;5003505;28;20468;-79
2023/11/01 08:45:40;;;;;;;1.60;1.00;;;14.10;98.20;;;;;;5012330;28;20478;-81
2023/11/01 08:48:07;;;;;;;1.60;1.00;;;14.10;98.20;;;;;;5001249;28;20488;-81
2023/11/01 08:50:34;;;;;;;1.60;1.00;;;14.20;98.20;;;;;;5018027;28;20455;-81
2023/11/01 08:53:00;;;;;;;1.60;1.00;;;14.20;98.20;;;;;;5020569;28;20649;-83
2023/11/01 08:55:27;;;;;;;2.00;1.47;;;14.30;98.20;;;;;;5020431;28;21002;-81
2023/11/01 08:57:55;;;;;;;1.60;1.00;;;14.40;98.20;;;;;;5017385;28;20479;-81
2023/11/01 09:00:23;;;;;;;1.60;0.90;;;14.40;98.20;;;;;;5025698;28;20455;-83
2023/11/01 09:02:50;;;;;;;1.60;1.00;;;14.40;98.20;;;;;;5022976;28;20478;-80
2023/11/01 09:05:18;;;;;;;1.60;1.00;;;14.40;98.20;;;;;;5015042;28;20467;-83
2023/11/01 09:07:46;;;;;;;1.60;1.00;;;14.40;98.20;;;;;;5023206;28;20488;-83
2023/11/01 09:10:13;;;;;;;1.60;1.00;;;14.40;98.20;;;;;;5016213;28;21005;-83
2023/11/01 09:12:40;;;;;;;1.60;1.00;;;14.40;98.20;;;;;;5017937;28;20475;-79
2023/11/01 09:15:07;;;;;;;1.60;1.00;;;14.50;98.20;;;;;;5019495;28;21029;-80
2023/11/01 09:17:35;;;;;;;1.60;1.00;;;14.50;98.20;;;;;;5018228;28;20486;-82
2023/11/01 09:20:03;;;;;;;1.60;1.00;;;14.60;98.20;;;;;;5015629;28;20479;-80
2023/11/01 09:22:30;;;;;;;1.60;1.00;;;14.60;98.20;;;;;;4999195;28;20526;-81
2023/11/01 09:24:57;;;;;;;1.60;1.00;;;14.60;98.20;;;;;;5014523;28;20464;-82
2023/11/01 09:27:24;;;;;;;1.60;0.90;;;14.70;98.20;;;;;;5013408;28;21083;-80
2023/11/01 09:29:51;;;;;;;1.60;1.00;;;14.60;98.20;;;;;;5015588;28;20491;-80
2023/11/01 09:32:17;;;;;;;1.60;1.00;;;14.60;98.20;;;;;;5015538;28;20483;-80
2023/11/01 09:34:46;;;;;;;1.60;1.00;;;14.60;98.20;;;;;;5013788;28;20467;-82
2023/11/01 09:37:13;;;;;;;1.60;1.00;;;14.60;98.20;;;;;;5001595;28;20484;-80
2023/11/01 09:39:40;;;;;;;1.60;1.00;;;14.50;98.20;;;;;;5011500;28;20484;-80
2023/11/01 09:42:13;;;;;;;1.60;1.00;;;14.50;98.20;;;;;;5012868;28;20469;-82
2023/11/01 09:44:40;;;;;;;1.60;1.00;;;14.50;98.20;;;;;;5016484;28;20475;-81
2023/11/01 09:47:07;;;;;;;1.60;1.00;;;14.50;98.20;;;;;;5008859;28;20484;-81
2023/11/01 09:49:35;;;;;;;1.60;1.00;;;14.50;98.20;;;;;;5017866;28;20455;-82
2023/11/01 09:52:04;;;;;;;1.60;1.00;;;14.40;98.20;;;;;;4997339;28;20480;-82
2023/11/01 09:54:31;;;;;;;1.60;1.00;;;14.50;98.20;;;;;;5010880;28;20468;-81
2023/11/01 09:57:01;;;;;;;1.60;1.00;;;14.50;98.20;;;;;;5011116;28;20574;-82
2023/11/01 09:59:28;;;;;;;1.70;1.20;;;14.50;98.20;;;;;;5017298;28;20495;-81
2023/11/01 10:01:55;;;;;;;1.60;1.10;;;14.50;98.20;;;;;;5007816;28;20487;-82
2023/11/01 10:04:23;;;;;;;1.60;1.00;;;14.60;98.20;;;;;;5020830;28;20955;-81
2023/11/01 10:06:49;;;;;;;1.60;1.00;;;14.70;98.20;;;;;;5005750;28;20669;-83
2023/11/01 10:09:18;;;;;;;1.60;0.90;;;14.70;98.20;;;;;;5015338;28;20470;-79
2023/11/01 10:11:46;;;;;;;1.60;0.90;;;14.80;98.20;;;;;;4997076;28;20495;-82
2023/11/01 10:14:13;;;;;;;1.60;1.00;;;14.90;98.20;;;;;;5010843;28;20469;-81
2023/11/01 10:16:40;;;;;;;1.60;0.90;;;14.90;98.20;;;;;;5008161;28;20475;-82
2023/11/01 10:19:07;;;;;;;1.60;1.00;;;15.00;98.20;;;;;;5020108;28;20834;-81
2023/11/01 10:21:34;;;;;;;1.60;1.00;;;15.00;98.20;;;;;;5007333;28;20487;-82
2023/11/01 10:24:03;;;;;;;1.60;1.00;;;15.00;98.20;;;;;;5015246;28;20474;-79
2023/11/01 10:26:31;;;;;;;1.60;1.13;;;15.10;98.20;;;;;;5003021;28;20486;-81
2023/11/01 10:28:58;;;;;;;1.60;1.00;;;15.20;98.20;;;;;;5022306;28;20599;-81
2023/11/01 10:31:25;;;;;;;1.60;1.00;;;15.30;98.20;;;;;;5011304;28;21050;-81
2023/11/01 10:33:52;;;;;;;1.60;0.90;;;15.30;98.20;;;;;;5027357;28;20464;-81
2023/11/01 10:36:19;;;;;;;1.60;1.00;;;15.40;98.20;;;;;;5012659;28;20475;-82
2023/11/01 10:38:47;;;;;;;1.60;1.00;;;15.40;98.20;;;;;;5027604;28;20462;-83
2023/11/01 10:41:16;;;;;;;1.60;1.00;;;15.40;98.20;;;;;;5016961;28;20989;-81
2023/11/01 10:43:44;;;;;;;1.60;1.00;;;15.40;98.20;;;;;;5026184;28;20467;-80
2023/11/01 10:46:11;;;;;;;1.60;1.00;;;15.50;98.20;;;;;;5008306;28;20764;-81
2023/11/01 10:48:39;;;;;;;1.60;1.00;;;15.50;98.20;;;;;;5016377;28;20492;-82
2023/11/01 10:51:07;;;;;;;1.60;1.00;;;15.60;98.20;;;;;;5002208;28;20871;-84
2023/11/01 10:53:34;;;;;;;1.60;1.00;;;15.60;98.20;;;;;;5019927;28;20511;-84
2023/11/01 10:56:04;;;;;;;1.60;1.00;;;15.70;98.20;;;;;;4997164;28;20849;-80
2023/11/01 10:58:36;;;;;;;1.60;0.90;;;15.80;98.20;;;;;;5005804;28;20483;-80
2023/11/01 11:01:11;;;;;;;1.60;1.00;;;15.80;98.20;;;;;;5001931;28;20522;-80
2023/11/01 11:03:48;;;;;;;1.60;1.00;;;15.80;98.20;;;;;;5025805;28;20470;-80
2023/11/01 11:06:20;;;;;;;1.60;0.97;;;15.70;98.20;;;;;;5009586;28;20538;-80
2023/11/01 11:09:22;;;;;;;1.60;0.90;;;15.70;98.20;;;;;;5028948;28;20478;-81
2023/11/01 11:12:15;;;;;;;1.50;0.90;;;15.70;98.20;;;;;;5011388;28;20495;-81
2023/11/01 11:14:42;;;;;;;1.60;1.00;;;15.60;98.20;;;;;;5022993;28;20455;-81
2023/11/01 11:17:15;;;;;;;1.60;0.90;;;15.70;98.20;;;;;;5012372;28;20492;-81
2023/11/01 11:20:09;;;;;;;1.60;1.00;;;15.60;98.20;;;;;;5016299;28;20468;-79
2023/11/01 11:23:13;;;;;;;1.60;1.00;;;15.60;98.20;;;;;;4994540;28;20790;-82
2023/11/01 11:25:51;;;;;;;1.60;1.10;;;15.70;98.20;;;;;;5004968;28;20925;-80
2023/11/01 11:28:47;;;;;;;1.60;1.00;;;15.60;98.20;;;;;;4994700;28;20488;-84
2023/11/01 11:31:23;;;;;;;1.60;1.00;;;15.60;98.20;;;;;;5000417;28;20468;-81
2023/11/01 11:36:28;;;;;;;1.70;1.20;;;15.60;98.20;;;;;;5134734;23;20487;-81
2023/11/01 11:38:56;;;;;;;1.60;0.90;;;15.60;98.20;;;;;;4972149;28;20468;-80
2023/11/01 11:41:35;;;;;;;1.57;0.90;;;15.60;98.20;;;;;;5008524;23;20512;-80
2023/11/01 11:44:19;;;;;;;1.60;1.00;;;15.60;98.20;;;;;;4984182;28;20477;-81
2023/11/01 11:47:19;;;;;;;1.60;0.90;;;15.60;98.20;;;;;;4963061;28;20667;-82
2023/11/01 11:49:48;;;;;;;1.60;1.00;;;15.70;98.20;;;;;;4963224;28;20482;-82
2023/11/01 11:52:31;;;;;;;1.60;1.00;;;15.70;98.20;;;;;;4966232;28;20481;-81
2023/11/01 11:55:02;;;;;;;1.60;1.00;;;15.70;98.20;;;;;;4967379;28;20501;-81
2023/11/01 11:57:33;;;;;;;1.60;1.00;;;15.70;98.20;;;;;;4973437;28;20481;-81
2023/11/01 12:00:21;;;;;;;1.60;1.03;;;15.70;98.20;;;;;;4963893;28;20458;-82
2023/11/01 12:02:54;;;;;;;1.60;1.10;;;15.60;98.20;;;;;;4971667;28;20595;-81
2023/11/01 12:05:36;;;;;;;1.60;1.00;;;15.60;98.20;;;;;;4967166;28;21020;-81
2023/11/01 12:08:11;;;;;;;1.60;1.00;;;15.60;98.20;;;;;;4974201;28;20524;-80
2023/11/01 12:10:51;;;;;;;1.60;0.90;;;15.60;98.20;;;;;;4969539;28;20988;-79
2023/11/01 12:13:18;;;;;;;1.60;1.00;;;15.60;98.20;;;;;;4979350;23;20528;-82
2023/11/01 12:15:45;;;;;;;1.53;1.00;;;15.60;98.20;;;;;;4984499;28;20497;-80
2023/11/01 12:18:12;;;;;;;1.60;1.00;;;15.60;98.20;;;;;;4950679;28;20592;-84
2023/11/01 12:20:39;;;;;;;1.60;1.10;;;15.50;98.20;;;;;;4963916;28;20502;-82
2023/11/01 12:23:09;;;;;;;1.60;1.00;;;15.60;98.20;;;;;;4970508;28;20485;-83
2023/11/01 12:25:36;;;;;;;1.93;1.73;;;15.50;98.20;;;;;;4965548;28;20489;-80
2023/11/01 12:28:04;;;;;;;1.60;1.00;;;15.50;98.20;;;;;;4969319;28;20940;-81
2023/11/01 12:30:44;;;;;;;1.60;1.00;;;15.50;98.20;;;;;;4961040;28;20469;-81
2023/11/01 12:33:39;;;;;;;1.60;1.00;;;15.50;98.20;;;;;;4965705;28;20557;-82
2023/11/01 12:36:09;;;;;;;1.60;1.00;;;15.50;98.20;;;;;;4954548;28;20926;-80
2023/11/01 12:38:44;;;;;;;1.60;0.90;;;15.50;98.20;;;;;;4976929;28;20472;-81
2023/11/01 12:41:57;;;;;;;1.57;1.00;;;15.50;98.20;;;;;;4967979;28;20555;-82
2023/11/01 12:44:25;;;;;;;1.57;1.00;;;15.50;98.20;;;;;;4931250;28;21011;-79
2023/11/01 12:46:57;;;;;;;1.60;1.00;;;15.50;98.20;;;;;;4970760;28;20488;-82
2023/11/01 12:49:43;;;;;;;1.60;1.03;;;15.50;98.20;;;;;;4994649;28;20461;-84
2023/11/01 12:52:10;;;;;;;1.60;0.93;;;15.50;98.20;;;;;;4984376;28;20732;-80
2023/11/01 12:54:41;;;;;;;1.60;1.00;;;15.40;98.20;;;;;;4989648;28;20575;-83
2023/11/01 12:57:09;;;;;;;1.60;0.90;;;15.40;98.20;;;;;;4982711;28;20476;-81
2023/11/01 12:59:37;;;;;;;1.60;1.00;;;15.40;98.20;;;;;;4987753;28;20527;-82